sensor_id;sensor_type;location;lat;lon;timestamp;pressure;altitude;pressure_sealevel;temperature;humidity
57248;BME280;55809;46.618;10.764;2023-04-30T00:03:24;92776.97;;;11.72;60.66
57248;BME280;55809;46.618;10.764;2023-04-30T00:06:09;92846.16;;;12.24;60.08
57248;BME280;55809;46.618;10.764;2023-04-30T00:08:44;92875.72;;;12.38;59.74
57248;BME280;55809;46.618;10.764;2023-04-30T00:11:34;92881.69;;;12.26;59.88
57248;BME280;55809;46.618;10.764;2023-04-30T00:14:11;92845.47;;;11.92;60.01
57248;BME280;55809;46.618;10.764;2023-04-30T00:17:22;92859.25;;;12.02;60.13
57248;BME280;55809;46.618;10.764;2023-04-30T00:20:13;92868.34;;;12.15;60.24
57248;BME280;55809;46.618;10.764;2023-04-30T00:22:48;92870.31;;;12.11;60.36
57248;BME280;55809;46.618;10.764;2023-04-30T00:25:23;92847.03;;;11.90;60.23
57248;BME280;55809;46.618;10.764;2023-04-30T00:28:17;92770.09;;;11.40;60.14
57248;BME280;55809;46.618;10.764;2023-04-30T00:31:01;92807.81;;;11.74;59.68
57248;BME280;55809;46.618;10.764;2023-04-30T00:33:44;92812.31;;;11.58;60.24
57248;BME280;55809;46.618;10.764;2023-04-30T00:39:08;92880.88;;;11.71;61.46
57248;BME280;55809;46.618;10.764;2023-04-30T00:41:43;92846.78;;;11.50;61.80
57248;BME280;55809;46.618;10.764;2023-04-30T00:44:18;92881.16;;;11.80;61.79
57248;BME280;55809;46.618;10.764;2023-04-30T00:47:29;92790.06;;;11.19;61.79
57248;BME280;55809;46.618;10.764;2023-04-30T00:50:26;92854.66;;;11.68;61.43
57248;BME280;55809;46.618;10.764;2023-04-30T00:52:58;92784.75;;;11.12;61.28
57248;BME280;55809;46.618;10.764;2023-04-30T00:55:28;92836.47;;;11.41;61.33
57248;BME280;55809;46.618;10.764;2023-04-30T00:58:01;92851.69;;;11.59;61.24
57248;BME280;55809;46.618;10.764;2023-04-30T01:01:13;92790.66;;;11.00;60.92
57248;BME280;55809;46.618;10.764;2023-04-30T01:04:01;92786.41;;;10.99;61.61
57248;BME280;55809;46.618;10.764;2023-04-30T01:06:35;92840.38;;;11.37;62.23
57248;BME280;55809;46.618;10.764;2023-04-30T01:09:05;92825.88;;;11.23;62.33
57248;BME280;55809;46.618;10.764;2023-04-30T01:11:48;92801.34;;;11.11;62.28
57248;BME280;55809;46.618;10.764;2023-04-30T01:14:29;92883.19;;;11.72;62.15
57248;BME280;55809;46.618;10.764;2023-04-30T01:17:37;92795.16;;;11.10;62.23
57248;BME280;55809;46.618;10.764;2023-04-30T01:20:46;92847.31;;;11.38;63.07
57248;BME280;55809;46.618;10.764;2023-04-30T01:23:34;92816.09;;;11.02;62.60
57248;BME280;55809;46.618;10.764;2023-04-30T01:26:37;92793.34;;;10.66;62.90
57248;BME280;55809;46.618;10.764;2023-04-30T01:29:31;92864.31;;;11.04;63.80
57248;BME280;55809;46.618;10.764;2023-04-30T01:32:52;92794.47;;;10.30;64.45
57248;BME280;55809;46.618;10.764;2023-04-30T01:35:30;92810.97;;;10.36;65.08
57248;BME280;55809;46.618;10.764;2023-04-30T01:38:27;92827.75;;;10.58;63.57
57248;BME280;55809;46.618;10.764;2023-04-30T01:41:19;92855.03;;;10.67;62.86
57248;BME280;55809;46.618;10.764;2023-04-30T01:44:44;92836.59;;;10.59;63.83
57248;BME280;55809;46.618;10.764;2023-04-30T01:47:40;92788.69;;;10.28;62.45
57248;BME280;55809;46.618;10.764;2023-04-30T01:50:23;92783.31;;;10.25;62.93
57248;BME280;55809;46.618;10.764;2023-04-30T01:53:22;92865.75;;;10.74;63.63
57248;BME280;55809;46.618;10.764;2023-04-30T01:56:04;92821.69;;;10.47;63.68
57248;BME280;55809;46.618;10.764;2023-04-30T01:58:54;92804.03;;;10.39;63.46
57248;BME280;55809;46.618;10.764;2023-04-30T02:05:24;92859.97;;;10.72;62.56
57248;BME280;55809;46.618;10.764;2023-04-30T02:07:56;92819.06;;;10.36;61.56
57248;BME280;55809;46.618;10.764;2023-04-30T02:10:41;92802.56;;;10.30;61.74
57248;BME280;55809;46.618;10.764;2023-04-30T02:13:18;92795.19;;;10.35;61.52
57248;BME280;55809;46.618;10.764;2023-04-30T02:16:05;92876.41;;;10.89;61.37
57248;BME280;55809;46.618;10.764;2023-04-30T02:18:37;92887.72;;;10.76;61.27
57248;BME280;55809;46.618;10.764;2023-04-30T02:24:53;92852.88;;;10.51;61.77
57248;BME280;55809;46.618;10.764;2023-04-30T02:27:47;92809.59;;;10.17;62.61
57248;BME280;55809;46.618;10.764;2023-04-30T02:30:20;92807.28;;;10.16;62.48
57248;BME280;55809;46.618;10.764;2023-04-30T02:33:11;92878.16;;;10.68;62.13
57248;BME280;55809;46.618;10.764;2023-04-30T02:35:47;92808.31;;;10.32;60.91
57248;BME280;55809;46.618;10.764;2023-04-30T02:38:29;92821.00;;;10.36;60.85
57248;BME280;55809;46.618;10.764;2023-04-30T02:41:17;92917.28;;;10.91;61.01
57248;BME280;55809;46.618;10.764;2023-04-30T02:44:04;92811.25;;;10.04;61.13
57248;BME280;55809;46.618;10.764;2023-04-30T02:46:38;92871.75;;;10.51;61.06
57248;BME280;55809;46.618;10.764;2023-04-30T02:49:11;92922.53;;;10.67;61.57
57248;BME280;55809;46.618;10.764;2023-04-30T02:55:02;92909.00;;;10.71;61.10
57248;BME280;55809;46.618;10.764;2023-04-30T02:57:46;92813.59;;;9.98;61.35
57248;BME280;55809;46.618;10.764;2023-04-30T03:00:32;92880.22;;;10.53;61.34
57248;BME280;55809;46.618;10.764;2023-04-30T03:03:01;92801.13;;;10.15;60.37
57248;BME280;55809;46.618;10.764;2023-04-30T03:05:45;92843.97;;;10.54;60.28
57248;BME280;55809;46.618;10.764;2023-04-30T03:08:40;92801.06;;;10.26;59.97
57248;BME280;55809;46.618;10.764;2023-04-30T03:11:27;92880.28;;;10.88;60.04
57248;BME280;55809;46.618;10.764;2023-04-30T03:14:27;92909.09;;;11.01;60.47
57248;BME280;55809;46.618;10.764;2023-04-30T03:17:01;92851.47;;;10.77;59.90
57248;BME280;55809;46.618;10.764;2023-04-30T03:19:32;92836.19;;;10.64;60.02
57248;BME280;55809;46.618;10.764;2023-04-30T03:22:19;92880.66;;;10.90;60.32
57248;BME280;55809;46.618;10.764;2023-04-30T03:25:02;92881.91;;;10.78;60.58
57248;BME280;55809;46.618;10.764;2023-04-30T03:31:01;92849.81;;;10.46;60.88
57248;BME280;55809;46.618;10.764;2023-04-30T03:33:46;92905.00;;;10.86;60.77
57248;BME280;55809;46.618;10.764;2023-04-30T03:36:26;92829.94;;;10.29;61.19
57248;BME280;55809;46.618;10.764;2023-04-30T03:39:10;92878.94;;;10.65;61.12
57248;BME280;55809;46.618;10.764;2023-04-30T03:41:54;92857.84;;;10.56;61.00
57248;BME280;55809;46.618;10.764;2023-04-30T03:45:08;92782.72;;;10.03;61.02
57248;BME280;55809;46.618;10.764;2023-04-30T03:50:56;92880.13;;;10.64;61.12
57248;BME280;55809;46.618;10.764;2023-04-30T03:54:04;92791.72;;;9.85;62.13
57248;BME280;55809;46.618;10.764;2023-04-30T03:57:12;92810.66;;;9.78;62.71
57248;BME280;55809;46.618;10.764;2023-04-30T04:00:30;92808.75;;;9.75;63.22
57248;BME280;55809;46.618;10.764;2023-04-30T04:03:07;92883.53;;;10.20;63.61
57248;BME280;55809;46.618;10.764;2023-04-30T04:05:46;92889.28;;;10.25;63.52
57248;BME280;55809;46.618;10.764;2023-04-30T04:08:48;92819.47;;;9.82;63.56
57248;BME280;55809;46.618;10.764;2023-04-30T04:11:32;92860.50;;;10.08;63.34
57248;BME280;55809;46.618;10.764;2023-04-30T04:14:08;92875.84;;;10.18;64.00
57248;BME280;55809;46.618;10.764;2023-04-30T04:16:51;92885.06;;;10.24;63.93
57248;BME280;55809;46.618;10.764;2023-04-30T04:19:31;92819.88;;;9.81;63.95
57248;BME280;55809;46.618;10.764;2023-04-30T04:25:17;92828.38;;;9.76;64.34
57248;BME280;55809;46.618;10.764;2023-04-30T04:28:05;92848.72;;;9.88;64.17
57248;BME280;55809;46.618;10.764;2023-04-30T04:30:38;92931.25;;;10.33;64.61
57248;BME280;55809;46.618;10.764;2023-04-30T04:33:20;92851.06;;;9.78;65.24
57248;BME280;55809;46.618;10.764;2023-04-30T04:36:03;92823.47;;;9.60;64.12
57248;BME280;55809;46.618;10.764;2023-04-30T04:39:09;92934.78;;;10.23;64.66
57248;BME280;55809;46.618;10.764;2023-04-30T04:41:59;92846.56;;;9.61;64.72
57248;BME280;55809;46.618;10.764;2023-04-30T04:44:51;92828.94;;;9.46;65.02
57248;BME280;55809;46.618;10.764;2023-04-30T04:47:55;92863.06;;;9.70;65.31
57248;BME280;55809;46.618;10.764;2023-04-30T04:50:38;92915.31;;;9.91;65.47
57248;BME280;55809;46.618;10.764;2023-04-30T04:53:19;92866.16;;;9.69;65.67
57248;BME280;55809;46.618;10.764;2023-04-30T04:55:48;92939.34;;;10.33;65.29
57248;BME280;55809;46.618;10.764;2023-04-30T04:58:38;92888.59;;;10.14;64.71
57248;BME280;55809;46.618;10.764;2023-04-30T05:01:21;92898.50;;;10.31;64.03
57248;BME280;55809;46.618;10.764;2023-04-30T05:04:32;92848.66;;;9.95;63.91
57248;BME280;55809;46.618;10.764;2023-04-30T05:07:22;92920.75;;;10.50;63.94
57248;BME280;55809;46.618;10.764;2023-04-30T05:10:03;92923.78;;;10.52;63.85
57248;BME280;55809;46.618;10.764;2023-04-30T05:12:49;92855.91;;;10.05;63.66
57248;BME280;55809;46.618;10.764;2023-04-30T05:15:49;92851.34;;;9.95;63.99
57248;BME280;55809;46.618;10.764;2023-04-30T05:18:30;92903.13;;;10.35;63.38
57248;BME280;55809;46.618;10.764;2023-04-30T05:21:00;92858.97;;;10.10;63.73
57248;BME280;55809;46.618;10.764;2023-04-30T05:23:49;92864.66;;;10.23;62.45
57248;BME280;55809;46.618;10.764;2023-04-30T05:26:33;92898.31;;;10.56;62.66
57248;BME280;55809;46.618;10.764;2023-04-30T05:29:22;92861.06;;;10.41;62.65
57248;BME280;55809;46.618;10.764;2023-04-30T05:32:42;92849.63;;;10.67;61.59
57248;BME280;55809;46.618;10.764;2023-04-30T05:35:29;92969.66;;;11.76;60.87
57248;BME280;55809;46.618;10.764;2023-04-30T05:38:02;92872.25;;;11.53;60.17
57248;BME280;55809;46.618;10.764;2023-04-30T05:40:48;92956.31;;;12.54;58.97
57248;BME280;55809;46.618;10.764;2023-04-30T05:43:22;92901.84;;;12.48;57.88
57248;BME280;55809;46.618;10.764;2023-04-30T05:46:03;92909.41;;;12.84;56.69
57248;BME280;55809;46.618;10.764;2023-04-30T05:48:53;92879.44;;;12.71;55.89
57248;BME280;55809;46.618;10.764;2023-04-30T05:51:43;92964.72;;;13.33;55.70
57248;BME280;55809;46.618;10.764;2023-04-30T05:54:27;92961.13;;;13.60;55.46
57248;BME280;55809;46.618;10.764;2023-04-30T05:57:13;92917.75;;;13.60;54.73
57248;BME280;55809;46.618;10.764;2023-04-30T05:59:57;92873.09;;;13.25;55.12
57248;BME280;55809;46.618;10.764;2023-04-30T06:02:48;92939.56;;;13.73;55.35
57248;BME280;55809;46.618;10.764;2023-04-30T06:05:41;92889.94;;;13.56;55.26
57248;BME280;55809;46.618;10.764;2023-04-30T06:08:20;92891.22;;;13.68;55.30
57248;BME280;55809;46.618;10.764;2023-04-30T06:11:03;92941.22;;;14.06;55.34
57248;BME280;55809;46.618;10.764;2023-04-30T06:14:00;92857.28;;;14.16;52.84
57248;BME280;55809;46.618;10.764;2023-04-30T06:16:46;92848.44;;;14.12;52.89
57248;BME280;55809;46.618;10.764;2023-04-30T06:28:52;92855.97;;;13.68;53.61
57248;BME280;55809;46.618;10.764;2023-04-30T06:31:42;92923.53;;;13.98;56.65
57248;BME280;55809;46.618;10.764;2023-04-30T06:37:15;92862.09;;;13.52;58.49
57248;BME280;55809;46.618;10.764;2023-04-30T06:43:05;92860.72;;;13.64;57.44
57248;BME280;55809;46.618;10.764;2023-04-30T06:49:14;92942.56;;;14.35;60.64
57248;BME280;55809;46.618;10.764;2023-04-30T06:51:44;92905.00;;;14.13;58.93
57248;BME280;55809;46.618;10.764;2023-04-30T06:54:31;92855.97;;;14.04;57.69
57248;BME280;55809;46.618;10.764;2023-04-30T06:57:34;92914.38;;;14.65;56.69
57248;BME280;55809;46.618;10.764;2023-04-30T07:00:04;92862.13;;;14.73;55.41
57248;BME280;55809;46.618;10.764;2023-04-30T07:02:39;92874.97;;;15.18;54.41
57248;BME280;55809;46.618;10.764;2023-04-30T07:05:39;92853.84;;;15.68;53.10
57248;BME280;55809;46.618;10.764;2023-04-30T07:08:35;92903.94;;;15.83;53.98
57248;BME280;55809;46.618;10.764;2023-04-30T07:11:13;92854.47;;;15.30;55.66
57248;BME280;55809;46.618;10.764;2023-04-30T07:17:30;92843.44;;;16.17;51.58
57248;BME280;55809;46.618;10.764;2023-04-30T07:20:14;92923.66;;;17.63;49.13
57248;BME280;55809;46.618;10.764;2023-04-30T07:22:51;92838.84;;;17.57;45.51
57248;BME280;55809;46.618;10.764;2023-04-30T07:25:29;92845.31;;;17.94;46.27
57248;BME280;55809;46.618;10.764;2023-04-30T07:28:08;92910.81;;;18.16;45.58
57248;BME280;55809;46.618;10.764;2023-04-30T07:30:50;92871.16;;;18.34;44.53
57248;BME280;55809;46.618;10.764;2023-04-30T07:33:27;92906.38;;;19.31;42.23
57248;BME280;55809;46.618;10.764;2023-04-30T07:36:04;92910.22;;;19.79;40.49
57248;BME280;55809;46.618;10.764;2023-04-30T07:38:57;92884.44;;;20.13;40.20
57248;BME280;55809;46.618;10.764;2023-04-30T07:41:25;92886.44;;;20.65;39.34
57248;BME280;55809;46.618;10.764;2023-04-30T07:43:55;92870.88;;;20.71;37.90
57248;BME280;55809;46.618;10.764;2023-04-30T07:46:24;92904.16;;;20.54;39.29
57248;BME280;55809;46.618;10.764;2023-04-30T07:48:52;92910.25;;;20.58;39.15
57248;BME280;55809;46.618;10.764;2023-04-30T07:51:21;92873.81;;;20.67;38.46
57248;BME280;55809;46.618;10.764;2023-04-30T07:53:49;92827.97;;;20.49;39.95
57248;BME280;55809;46.618;10.764;2023-04-30T07:56:36;92888.03;;;21.14;38.85
57248;BME280;55809;46.618;10.764;2023-04-30T07:59:04;92889.56;;;21.39;37.82
57248;BME280;55809;46.618;10.764;2023-04-30T08:01:32;92871.72;;;21.58;37.95
57248;BME280;55809;46.618;10.764;2023-04-30T08:04:01;92881.50;;;21.59;38.61
57248;BME280;55809;46.618;10.764;2023-04-30T08:06:29;92883.34;;;22.07;37.64
57248;BME280;55809;46.618;10.764;2023-04-30T08:08:57;92882.19;;;21.84;36.64
57248;BME280;55809;46.618;10.764;2023-04-30T08:11:25;92881.06;;;21.51;36.78
57248;BME280;55809;46.618;10.764;2023-04-30T08:13:55;92885.13;;;21.41;37.56
57248;BME280;55809;46.618;10.764;2023-04-30T08:16:22;92868.16;;;21.67;37.96
57248;BME280;55809;46.618;10.764;2023-04-30T08:18:50;92867.84;;;21.65;36.32
57248;BME280;55809;46.618;10.764;2023-04-30T08:21:20;92881.31;;;21.39;37.14
57248;BME280;55809;46.618;10.764;2023-04-30T08:23:50;92801.56;;;20.70;38.19
57248;BME280;55809;46.618;10.764;2023-04-30T08:26:25;92867.00;;;20.87;39.35
57248;BME280;55809;46.618;10.764;2023-04-30T08:29:07;92874.59;;;20.58;38.70
57248;BME280;55809;46.618;10.764;2023-04-30T08:31:39;92842.03;;;20.51;37.77
57248;BME280;55809;46.618;10.764;2023-04-30T08:34:08;92870.81;;;21.37;37.47
57248;BME280;55809;46.618;10.764;2023-04-30T08:36:34;92864.84;;;21.39;37.11
57248;BME280;55809;46.618;10.764;2023-04-30T08:39:02;92850.75;;;21.22;36.42
57248;BME280;55809;46.618;10.764;2023-04-30T08:41:36;92865.38;;;21.04;37.00
57248;BME280;55809;46.618;10.764;2023-04-30T08:47:38;92777.69;;;20.61;37.09
57248;BME280;55809;46.618;10.764;2023-04-30T08:50:09;92860.97;;;21.45;36.75
57248;BME280;55809;46.618;10.764;2023-04-30T08:52:39;92840.66;;;21.04;37.03
57248;BME280;55809;46.618;10.764;2023-04-30T08:55:09;92854.00;;;20.96;36.99
57248;BME280;55809;46.618;10.764;2023-04-30T08:57:37;92860.59;;;21.38;37.05
57248;BME280;55809;46.618;10.764;2023-04-30T09:00:07;92848.97;;;21.43;37.62
57248;BME280;55809;46.618;10.764;2023-04-30T09:02:40;92819.63;;;21.49;37.08
57248;BME280;55809;46.618;10.764;2023-04-30T09:05:12;92846.34;;;21.63;36.76
57248;BME280;55809;46.618;10.764;2023-04-30T09:07:42;92764.72;;;20.29;37.98
57248;BME280;55809;46.618;10.764;2023-04-30T09:10:35;92775.81;;;20.01;40.29
57248;BME280;55809;46.618;10.764;2023-04-30T09:13:07;92771.13;;;20.26;39.26
57248;BME280;55809;46.618;10.764;2023-04-30T09:15:38;92772.03;;;20.32;37.92
57248;BME280;55809;46.618;10.764;2023-04-30T09:18:45;92812.94;;;20.45;39.88
57248;BME280;55809;46.618;10.764;2023-04-30T09:24:46;92757.66;;;20.04;40.68
57248;BME280;55809;46.618;10.764;2023-04-30T09:27:19;92801.25;;;20.35;39.18
57248;BME280;55809;46.618;10.764;2023-04-30T09:29:50;92829.31;;;20.63;41.42
57248;BME280;55809;46.618;10.764;2023-04-30T09:32:18;92831.91;;;20.67;40.74
57248;BME280;55809;46.618;10.764;2023-04-30T09:34:49;92787.03;;;20.46;39.54
57248;BME280;55809;46.618;10.764;2023-04-30T09:37:20;92826.25;;;20.94;37.62
57248;BME280;55809;46.618;10.764;2023-04-30T09:40:05;92786.38;;;20.60;39.75
57248;BME280;55809;46.618;10.764;2023-04-30T09:42:56;92812.44;;;20.55;39.27
57248;BME280;55809;46.618;10.764;2023-04-30T09:45:25;92818.38;;;21.11;38.96
57248;BME280;55809;46.618;10.764;2023-04-30T09:47:54;92770.63;;;20.94;39.67
57248;BME280;55809;46.618;10.764;2023-04-30T09:51:06;92725.28;;;20.59;39.74
57248;BME280;55809;46.618;10.764;2023-04-30T09:53:51;92726.97;;;20.81;40.19
57248;BME280;55809;46.618;10.764;2023-04-30T09:56:23;92813.22;;;21.67;39.35
57248;BME280;55809;46.618;10.764;2023-04-30T09:58:52;92807.72;;;21.67;38.96
57248;BME280;55809;46.618;10.764;2023-04-30T10:01:24;92782.88;;;21.91;39.63
57248;BME280;55809;46.618;10.764;2023-04-30T10:03:53;92781.66;;;22.07;37.44
57248;BME280;55809;46.618;10.764;2023-04-30T10:06:27;92792.16;;;22.38;37.99
57248;BME280;55809;46.618;10.764;2023-04-30T10:09:02;92801.44;;;22.40;37.28
57248;BME280;55809;46.618;10.764;2023-04-30T10:11:34;92788.13;;;22.54;37.30
57248;BME280;55809;46.618;10.764;2023-04-30T10:14:09;92753.47;;;22.41;39.00
57248;BME280;55809;46.618;10.764;2023-04-30T10:16:42;92788.34;;;23.06;37.90
57248;BME280;55809;46.618;10.764;2023-04-30T10:19:13;92779.19;;;23.35;36.32
57248;BME280;55809;46.618;10.764;2023-04-30T10:21:46;92764.66;;;23.34;36.48
57248;BME280;55809;46.618;10.764;2023-04-30T10:24:15;92770.06;;;23.49;36.41
57248;BME280;55809;46.618;10.764;2023-04-30T10:26:44;92767.94;;;23.38;36.73
57248;BME280;55809;46.618;10.764;2023-04-30T10:29:13;92755.16;;;23.35;36.28
57248;BME280;55809;46.618;10.764;2023-04-30T10:31:45;92752.47;;;23.41;35.46
57248;BME280;55809;46.618;10.764;2023-04-30T10:34:20;92743.84;;;23.07;36.45
57248;BME280;55809;46.618;10.764;2023-04-30T10:36:58;92749.31;;;23.28;36.54
57248;BME280;55809;46.618;10.764;2023-04-30T10:39:28;92744.28;;;22.65;37.92
57248;BME280;55809;46.618;10.764;2023-04-30T10:42:04;92688.97;;;22.63;37.39
57248;BME280;55809;46.618;10.764;2023-04-30T10:44:32;92710.41;;;22.94;36.67
57248;BME280;55809;46.618;10.764;2023-04-30T10:47:01;92732.47;;;23.20;36.80
57248;BME280;55809;46.618;10.764;2023-04-30T10:49:31;92704.19;;;22.99;35.97
57248;BME280;55809;46.618;10.764;2023-04-30T10:52:04;92726.41;;;22.75;36.36
57248;BME280;55809;46.618;10.764;2023-04-30T10:54:35;92714.38;;;22.37;36.73
57248;BME280;55809;46.618;10.764;2023-04-30T10:57:13;92640.38;;;21.98;37.17
57248;BME280;55809;46.618;10.764;2023-04-30T10:59:51;92708.56;;;22.15;35.80
57248;BME280;55809;46.618;10.764;2023-04-30T11:02:19;92672.41;;;22.01;38.22
57248;BME280;55809;46.618;10.764;2023-04-30T11:05:09;92698.94;;;21.90;38.67
57248;BME280;55809;46.618;10.764;2023-04-30T11:07:55;92669.31;;;21.79;36.95
57248;BME280;55809;46.618;10.764;2023-04-30T11:10:25;92695.88;;;22.02;36.71
57248;BME280;55809;46.618;10.764;2023-04-30T11:12:55;92664.78;;;21.76;35.73
57248;BME280;55809;46.618;10.764;2023-04-30T11:15:25;92645.84;;;21.48;35.84
57248;BME280;55809;46.618;10.764;2023-04-30T11:17:56;92639.78;;;21.15;37.82
57248;BME280;55809;46.618;10.764;2023-04-30T11:20:25;92643.19;;;21.54;38.55
57248;BME280;55809;46.618;10.764;2023-04-30T11:23:10;92648.22;;;21.26;38.21
57248;BME280;55809;46.618;10.764;2023-04-30T11:25:43;92643.25;;;20.85;38.27
57248;BME280;55809;46.618;10.764;2023-04-30T11:28:13;92608.25;;;20.42;39.44
57248;BME280;55809;46.618;10.764;2023-04-30T11:30:50;92658.00;;;20.88;39.09
57248;BME280;55809;46.618;10.764;2023-04-30T11:33:19;92613.44;;;20.64;39.47
57248;BME280;55809;46.618;10.764;2023-04-30T11:35:48;92625.16;;;20.64;40.36
57248;BME280;55809;46.618;10.764;2023-04-30T11:38:24;92612.31;;;20.46;40.25
57248;BME280;55809;46.618;10.764;2023-04-30T11:40:53;92602.81;;;20.18;40.50
57248;BME280;55809;46.618;10.764;2023-04-30T11:43:43;92607.13;;;20.48;40.98
57248;BME280;55809;46.618;10.764;2023-04-30T11:46:12;92621.66;;;20.39;39.57
57248;BME280;55809;46.618;10.764;2023-04-30T11:48:40;92613.72;;;20.42;40.81
57248;BME280;55809;46.618;10.764;2023-04-30T11:51:16;92585.34;;;20.30;41.06
57248;BME280;55809;46.618;10.764;2023-04-30T11:53:47;92601.66;;;20.48;41.63
57248;BME280;55809;46.618;10.764;2023-04-30T11:56:18;92596.91;;;20.49;42.53
57248;BME280;55809;46.618;10.764;2023-04-30T11:58:47;92599.84;;;20.45;42.22
57248;BME280;55809;46.618;10.764;2023-04-30T12:01:19;92593.38;;;20.57;42.72
57248;BME280;55809;46.618;10.764;2023-04-30T12:03:49;92610.22;;;20.65;42.03
57248;BME280;55809;46.618;10.764;2023-04-30T12:06:22;92603.59;;;20.57;41.63
57248;BME280;55809;46.618;10.764;2023-04-30T12:08:53;92581.88;;;20.44;41.85
57248;BME280;55809;46.618;10.764;2023-04-30T12:11:22;92598.59;;;20.70;41.70
57248;BME280;55809;46.618;10.764;2023-04-30T12:13:53;92583.41;;;20.45;42.20
57248;BME280;55809;46.618;10.764;2023-04-30T12:16:24;92571.38;;;20.28;41.56
57248;BME280;55809;46.618;10.764;2023-04-30T12:18:56;92591.66;;;20.21;41.45
57248;BME280;55809;46.618;10.764;2023-04-30T12:21:24;92557.66;;;20.28;43.00
57248;BME280;55809;46.618;10.764;2023-04-30T12:23:54;92607.56;;;20.32;41.57
57248;BME280;55809;46.618;10.764;2023-04-30T12:26:23;92589.28;;;20.14;43.05
57248;BME280;55809;46.618;10.764;2023-04-30T12:28:51;92600.06;;;20.18;42.70
57248;BME280;55809;46.618;10.764;2023-04-30T12:31:19;92593.06;;;19.92;42.40
57248;BME280;55809;46.618;10.764;2023-04-30T12:33:54;92592.53;;;19.46;44.13
57248;BME280;55809;46.618;10.764;2023-04-30T12:36:29;92588.50;;;19.65;44.40
57248;BME280;55809;46.618;10.764;2023-04-30T12:39:10;92587.41;;;19.96;44.11
57248;BME280;55809;46.618;10.764;2023-04-30T12:41:42;92582.94;;;20.08;43.36
57248;BME280;55809;46.618;10.764;2023-04-30T12:44:16;92571.91;;;19.93;42.94
57248;BME280;55809;46.618;10.764;2023-04-30T12:46:46;92581.22;;;19.86;44.12
57248;BME280;55809;46.618;10.764;2023-04-30T12:49:26;92582.47;;;19.85;43.26
57248;BME280;55809;46.618;10.764;2023-04-30T12:52:03;92584.84;;;19.92;44.49
57248;BME280;55809;46.618;10.764;2023-04-30T12:54:38;92544.75;;;19.80;44.04
57248;BME280;55809;46.618;10.764;2023-04-30T12:57:09;92532.75;;;19.78;43.82
57248;BME280;55809;46.618;10.764;2023-04-30T12:59:57;92567.19;;;20.18;43.18
57248;BME280;55809;46.618;10.764;2023-04-30T13:02:32;92570.84;;;20.14;43.59
57248;BME280;55809;46.618;10.764;2023-04-30T13:05:08;92562.00;;;19.72;43.58
57248;BME280;55809;46.618;10.764;2023-04-30T13:07:39;92563.75;;;19.51;43.08
57248;BME280;55809;46.618;10.764;2023-04-30T13:10:09;92543.50;;;19.24;43.22
57248;BME280;55809;46.618;10.764;2023-04-30T13:12:37;92572.13;;;19.47;43.22
57248;BME280;55809;46.618;10.764;2023-04-30T13:15:06;92560.22;;;19.59;44.04
57248;BME280;55809;46.618;10.764;2023-04-30T13:17:35;92562.00;;;19.72;43.22
57248;BME280;55809;46.618;10.764;2023-04-30T13:20:04;92506.03;;;19.39;43.98
57248;BME280;55809;46.618;10.764;2023-04-30T13:22:32;92535.00;;;19.55;44.32
57248;BME280;55809;46.618;10.764;2023-04-30T13:25:00;92513.72;;;19.50;43.36
57248;BME280;55809;46.618;10.764;2023-04-30T13:27:29;92551.44;;;19.79;42.51
57248;BME280;55809;46.618;10.764;2023-04-30T13:29:58;92567.78;;;19.98;43.66
57248;BME280;55809;46.618;10.764;2023-04-30T13:32:40;92549.53;;;19.95;43.38
57248;BME280;55809;46.618;10.764;2023-04-30T13:35:12;92457.22;;;19.38;43.82
57248;BME280;55809;46.618;10.764;2023-04-30T13:37:41;92559.88;;;20.14;43.21
57248;BME280;55809;46.618;10.764;2023-04-30T13:40:10;92559.13;;;20.14;41.97
57248;BME280;55809;46.618;10.764;2023-04-30T13:42:40;92515.81;;;19.64;43.40
57248;BME280;55809;46.618;10.764;2023-04-30T13:45:09;92560.53;;;19.61;43.89
57248;BME280;55809;46.618;10.764;2023-04-30T13:47:36;92566.59;;;19.32;44.98
57248;BME280;55809;46.618;10.764;2023-04-30T13:50:08;92565.13;;;19.22;44.31
57248;BME280;55809;46.618;10.764;2023-04-30T13:52:40;92554.03;;;19.16;44.66
57248;BME280;55809;46.618;10.764;2023-04-30T13:55:08;92560.84;;;19.21;44.15
57248;BME280;55809;46.618;10.764;2023-04-30T13:57:36;92544.50;;;19.03;43.94
57248;BME280;55809;46.618;10.764;2023-04-30T14:00:10;92540.47;;;18.89;44.34
57248;BME280;55809;46.618;10.764;2023-04-30T14:02:43;92527.56;;;18.80;44.69
57248;BME280;55809;46.618;10.764;2023-04-30T14:05:14;92562.25;;;19.16;44.70
57248;BME280;55809;46.618;10.764;2023-04-30T14:07:47;92567.53;;;19.20;44.34
57248;BME280;55809;46.618;10.764;2023-04-30T14:10:16;92525.47;;;19.08;45.32
57248;BME280;55809;46.618;10.764;2023-04-30T14:12:53;92581.00;;;19.42;45.67
57248;BME280;55809;46.618;10.764;2023-04-30T14:15:23;92572.72;;;19.51;44.81
57248;BME280;55809;46.618;10.764;2023-04-30T14:18:00;92534.22;;;19.21;44.86
57248;BME280;55809;46.618;10.764;2023-04-30T14:20:31;92540.91;;;19.30;45.00
57248;BME280;55809;46.618;10.764;2023-04-30T14:23:00;92575.44;;;19.51;45.10
57248;BME280;55809;46.618;10.764;2023-04-30T14:25:35;92572.84;;;19.24;45.29
57248;BME280;55809;46.618;10.764;2023-04-30T14:28:12;92572.94;;;18.96;45.63
57248;BME280;55809;46.618;10.764;2023-04-30T14:30:46;92588.53;;;19.14;46.21
57248;BME280;55809;46.618;10.764;2023-04-30T14:33:14;92588.69;;;19.19;45.88
57248;BME280;55809;46.618;10.764;2023-04-30T14:35:43;92582.13;;;19.26;45.33
57248;BME280;55809;46.618;10.764;2023-04-30T14:38:11;92591.66;;;19.31;45.62
57248;BME280;55809;46.618;10.764;2023-04-30T14:40:40;92585.00;;;19.32;45.25
57248;BME280;55809;46.618;10.764;2023-04-30T14:43:11;92585.03;;;19.13;45.42
57248;BME280;55809;46.618;10.764;2023-04-30T14:45:39;92522.00;;;18.56;45.24